Time;durP1;ratioP1;P1;durP2;ratioP2;P2;SDS_P1;SDS_P2;PMS_P1;PMS_P2;Temp;Humidity;BMP_temperature;BMP_pressure;BME280_temperature;BME280_humidity;BME280_pressure;Samples;Min_cycle;Max_cycle;Signal;HPM_P1;HPM_P2
2023/06/08 00:00:10;;;;;;;;;;;;;;;20.31;100.00;99607.41;5013639;28;19921;-79
2023/06/08 00:02:43;;;;;;;;;;;;;;;20.30;100.00;99609.25;5010520;28;19920;-77
2023/06/08 00:05:12;;;;;;;;;;;;;;;20.31;100.00;99618.13;5031355;28;19919;-77
2023/06/08 00:07:40;;;;;;;;;;;;;;;20.30;100.00;99611.94;5027467;28;20434;-77
2023/06/08 00:10:09;;;;;;;;;;;;;;;20.27;100.00;99609.66;5031150;28;20008;-77
2023/06/08 00:12:34;;;;;;;;;;;;;;;20.20;100.00;99602.66;5027537;28;19920;-78
2023/06/08 00:15:00;;;;;;;;;;;;;;;20.17;100.00;99605.72;5031201;28;20008;-77
2023/06/08 00:17:27;;;;;;;;;;;;;;;20.15;100.00;99599.72;5030936;28;19964;-77
2023/06/08 00:19:52;;;;;;;;;;;;;;;20.12;100.00;99597.47;5013212;28;19977;-78
2023/06/08 00:22:18;;;;;;;;;;;;;;;20.07;100.00;99598.09;5030926;28;19917;-78
2023/06/08 00:24:43;;;;;;;;;;;;;;;20.05;100.00;99600.13;5031152;28;19924;-77
2023/06/08 00:27:09;;;;;;;;;;;;;;;20.04;100.00;99593.13;5031395;28;20023;-77
2023/06/08 00:29:36;;;;;;;;;;;;;;;20.04;100.00;99591.25;5027572;28;19923;-77
2023/06/08 00:32:02;;;;;;;;;;;;;;;20.07;100.00;99602.63;5013018;28;19921;-78
2023/06/08 00:34:28;;;;;;;;;;;;;;;20.07;100.00;99602.63;5030813;28;19963;-78
2023/06/08 00:36:55;;;;;;;;;;;;;;;20.06;100.00;99596.44;5012823;28;19971;-77
2023/06/08 00:39:21;;;;;;;;;;;;;;;20.06;100.00;99592.91;5031712;28;19940;-77
2023/06/08 00:41:47;;;;;;;;;;;;;;;20.03;100.00;99586.94;5033658;28;20380;-78
2023/06/08 00:44:12;;;;;;;;;;;;;;;20.02;100.00;99581.81;5035000;28;19917;-78
2023/06/08 00:46:38;;;;;;;;;;;;;;;20.01;100.00;99578.28;5025624;28;19971;-77
2023/06/08 00:49:04;;;;;;;;;;;;;;;19.99;100.00;99580.34;5034383;28;19928;-76
2023/06/08 00:51:34;;;;;;;;;;;;;;;19.98;100.00;99570.66;5034672;28;20328;-75
2023/06/08 00:54:01;;;;;;;;;;;;;;;19.97;100.00;99571.66;5034435;28;20399;-77
2023/06/08 00:56:27;;;;;;;;;;;;;;;19.98;100.00;99562.63;5017079;28;19942;-77
2023/06/08 00:59:00;;;;;;;;;;;;;;;19.98;100.00;99562.63;5031713;28;20019;-78
2023/06/08 01:01:29;;;;;;;;;;;;;;;19.96;100.00;99553.16;5031986;28;19921;-77
2023/06/08 01:04:07;;;;;;;;;;;;;;;19.94;100.00;99560.56;5031816;28;20027;-77
2023/06/08 01:06:45;;;;;;;;;;;;;;;19.92;100.00;99560.75;5033918;28;20023;-75
2023/06/08 01:09:17;;;;;;;;;;;;;;;19.87;100.00;99565.88;5031086;28;20381;-77
2023/06/08 01:12:03;;;;;;;;;;;;;;;19.87;100.00;99560.53;5034455;28;20289;-77
2023/06/08 01:14:44;;;;;;;;;;;;;;;19.87;100.00;99559.69;5013354;28;19924;-78
2023/06/08 01:17:14;;;;;;;;;;;;;;;19.84;100.00;99555.59;5030907;28;19913;-77
2023/06/08 01:19:52;;;;;;;;;;;;;;;19.83;100.00;99553.94;5034297;28;19953;-78
2023/06/08 01:22:29;;;;;;;;;;;;;;;19.83;100.00;99561.97;5033736;28;19953;-78
2023/06/08 01:24:56;;;;;;;;;;;;;;;19.74;100.00;99563.16;5034080;28;19913;-77
2023/06/08 01:27:24;;;;;;;;;;;;;;;19.75;100.00;99567.50;5016585;28;20285;-78
2023/06/08 01:29:51;;;;;;;;;;;;;;;19.75;100.00;99572.84;5034193;28;19924;-79
2023/06/08 01:32:17;;;;;;;;;;;;;;;19.68;100.00;99577.34;5034374;28;20296;-78
2023/06/08 01:34:43;;;;;;;;;;;;;;;19.57;100.00;99568.06;5033990;28;19917;-78
2023/06/08 01:37:27;;;;;;;;;;;;;;;19.49;100.00;99575.44;5023257;28;19917;-79
2023/06/08 01:39:59;;;;;;;;;;;;;;;19.15;100.00;99566.38;5014989;28;19920;-78
2023/06/08 01:42:26;;;;;;;;;;;;;;;18.95;100.00;99565.47;5033684;28;19916;-78
2023/06/08 01:45:11;;;;;;;;;;;;;;;18.88;100.00;99566.44;5015700;28;19996;-77
2023/06/08 01:47:45;;;;;;;;;;;;;;;18.89;100.00;99560.06;5029301;28;19917;-76
2023/06/08 01:50:10;;;;;;;;;;;;;;;18.85;100.00;99564.16;5029495;28;20011;-77
2023/06/08 01:52:38;;;;;;;;;;;;;;;18.82;100.00;99557.34;5013803;28;20361;-77
2023/06/08 01:55:04;;;;;;;;;;;;;;;18.85;100.00;99559.63;5032483;28;19956;-78
2023/06/08 01:57:29;;;;;;;;;;;;;;;18.89;100.00;99560.91;5032901;28;20388;-77
2023/06/08 01:59:54;;;;;;;;;;;;;;;18.91;100.00;99558.81;5032294;28;19916;-78
2023/06/08 02:02:20;;;;;;;;;;;;;;;18.84;100.00;99563.34;5033218;28;20043;-78
2023/06/08 02:04:45;;;;;;;;;;;;;;;18.74;100.00;99562.81;5015442;28;19991;-78
2023/06/08 02:07:11;;;;;;;;;;;;;;;18.75;100.00;99559.13;5032338;28;20297;-78
2023/06/08 02:09:36;;;;;;;;;;;;;;;18.71;100.00;99565.91;5032675;28;19940;-79
2023/06/08 02:12:03;;;;;;;;;;;;;;;18.63;100.00;99566.88;5032206;28;19976;-79
2023/06/08 02:14:28;;;;;;;;;;;;;;;18.64;100.00;99563.19;5014680;28;20004;-79
2023/06/08 02:16:55;;;;;;;;;;;;;;;18.68;100.00;99563.59;5032084;28;20007;-78
2023/06/08 02:19:22;;;;;;;;;;;;;;;18.72;100.00;99555.03;5032234;28;19976;-79
2023/06/08 02:21:49;;;;;;;;;;;;;;;18.67;100.00;99561.97;5031824;28;19925;-78
2023/06/08 02:24:18;;;;;;;;;;;;;;;18.63;100.00;99555.34;5031892;28;19917;-78
2023/06/08 02:26:43;;;;;;;;;;;;;;;18.60;100.00;99561.09;4997802;28;19956;-78
2023/06/08 02:29:09;;;;;;;;;;;;;;;18.50;100.00;99550.69;5014190;28;20062;-79
2023/06/08 02:31:34;;;;;;;;;;;;;;;18.55;100.00;99544.81;5033468;28;19917;-78
2023/06/08 02:34:00;;;;;;;;;;;;;;;18.59;100.00;99549.59;5031720;28;19928;-78
2023/06/08 02:36:31;;;;;;;;;;;;;;;18.49;100.00;99548.25;5032132;28;19916;-78
2023/06/08 02:38:58;;;;;;;;;;;;;;;18.50;100.00;99552.53;5014026;28;19917;-78
2023/06/08 02:41:23;;;;;;;;;;;;;;;18.50;100.00;99544.53;5014548;28;19924;-78
2023/06/08 02:43:49;;;;;;;;;;;;;;;18.50;100.00;99542.69;5009481;28;19928;-77
2023/06/08 02:46:15;;;;;;;;;;;;;;;18.52;100.00;99537.16;5031729;28;19917;-78
2023/06/08 02:48:40;;;;;;;;;;;;;;;18.56;100.00;99543.78;5013892;28;19990;-78
2023/06/08 02:51:06;;;;;;;;;;;;;;;18.60;100.00;99548.56;5021735;28;19921;-78
2023/06/08 02:53:31;;;;;;;;;;;;;;;18.69;100.00;99546.56;5030942;28;19943;-78
2023/06/08 02:55:58;;;;;;;;;;;;;;;18.72;100.00;99543.50;5030727;28;19921;-78
2023/06/08 02:58:25;;;;;;;;;;;;;;;18.78;100.00;99540.06;5021743;28;19917;-78
2023/06/08 03:00:55;;;;;;;;;;;;;;;18.76;100.00;99540.25;5031032;28;19923;-79
2023/06/08 03:03:30;;;;;;;;;;;;;;;18.76;100.00;99539.41;5013579;28;20035;-76
2023/06/08 03:05:59;;;;;;;;;;;;;;;18.77;100.00;99541.06;5013833;28;20419;-74
2023/06/08 03:08:26;;;;;;;;;;;;;;;18.75;100.00;99543.09;5022984;28;20444;-76
2023/06/08 03:10:52;;;;;;;;;;;;;;;18.74;100.00;99547.63;5030608;28;20007;-77
2023/06/08 03:13:18;;;;;;;;;;;;;;;18.73;100.00;99555.84;5031310;28;19928;-78
2023/06/08 03:15:45;;;;;;;;;;;;;;;18.68;100.00;99560.94;5013499;28;19917;-77
2023/06/08 03:18:11;;;;;;;;;;;;;;;18.61;100.00;99573.44;5022070;28;19963;-78
2023/06/08 03:20:40;;;;;;;;;;;;;;;18.45;100.00;99568.31;5014081;28;19960;-78
2023/06/08 03:23:10;;;;;;;;;;;;;;;18.13;100.00;99570.53;5018769;28;19948;-78
2023/06/08 03:25:38;;;;;;;;;;;;;;;18.09;100.00;99569.22;5013816;28;20396;-77
2023/06/08 03:28:05;;;;;;;;;;;;;;;18.13;100.00;99570.53;5026686;28;20032;-77
2023/06/08 03:30:31;;;;;;;;;;;;;;;18.21;100.00;99572.22;5030992;28;20370;-77
2023/06/08 03:32:57;;;;;;;;;;;;;;;18.18;100.00;99568.09;4996815;28;19993;-78
2023/06/08 03:35:42;;;;;;;;;;;;;;;18.05;100.00;99573.31;5010460;28;20293;-77
2023/06/08 03:38:19;;;;;;;;;;;;;;;17.98;100.00;99567.06;5030879;28;20376;-77
2023/06/08 03:40:46;;;;;;;;;;;;;;;17.98;100.00;99572.41;5021199;28;20361;-77
2023/06/08 03:43:11;;;;;;;;;;;;;;;18.07;100.00;99565.13;5030482;28;19927;-77
2023/06/08 03:45:37;;;;;;;;;;;;;;;18.16;100.00;99564.78;5031001;28;19964;-77
2023/06/08 03:48:03;;;;;;;;;;;;;;;18.22;100.00;99558.69;5012909;28;19917;-77
2023/06/08 03:50:30;;;;;;;;;;;;;;;18.30;100.00;99555.91;5013457;28;20388;-78
2023/06/08 03:52:57;;;;;;;;;;;;;;;18.34;100.00;99556.31;5012644;28;20280;-77
2023/06/08 03:55:23;;;;;;;;;;;;;;;18.28;100.00;99555.25;5013243;28;19939;-78
2023/06/08 03:57:50;;;;;;;;;;;;;;;18.21;100.00;99556.19;5030219;28;20411;-77
2023/06/08 04:00:16;;;;;;;;;;;;;;;18.24;100.00;99551.31;4994206;28;20408;-77
2023/06/08 04:02:42;;;;;;;;;;;;;;;18.27;100.00;99550.09;5013397;28;19921;-77
2023/06/08 04:05:13;;;;;;;;;;;;;;;18.33;100.00;99550.16;5013172;28;20387;-77
2023/06/08 04:07:40;;;;;;;;;;;;;;;18.40;100.00;99559.06;5012610;28;19959;-78
2023/06/08 04:10:06;;;;;;;;;;;;;;;18.45;100.00;99549.63;5008901;28;20459;-78
2023/06/08 04:12:32;;;;;;;;;;;;;;;18.45;100.00;99557.63;5030276;28;19972;-79
2023/06/08 04:14:58;;;;;;;;;;;;;;;18.43;100.00;99555.19;5030280;28;19917;-80
2023/06/08 04:17:27;;;;;;;;;;;;;;;18.44;100.00;99553.34;5016831;28;19917;-79
2023/06/08 04:19:53;;;;;;;;;;;;;;;18.41;100.00;99560.72;5016677;28;19921;-79
2023/06/08 04:22:18;;;;;;;;;;;;;;;18.28;100.00;99557.91;5015838;28;19917;-78
2023/06/08 04:24:47;;;;;;;;;;;;;;;18.27;100.00;99553.59;5016439;28;19917;-77
2023/06/08 04:27:13;;;;;;;;;;;;;;;18.21;100.00;99554.34;5016466;28;19924;-77
2023/06/08 04:29:38;;;;;;;;;;;;;;;18.24;100.00;99554.00;5016757;28;19921;-78
2023/06/08 04:32:04;;;;;;;;;;;;;;;18.18;100.00;99556.59;5015975;28;19964;-77
2023/06/08 04:34:31;;;;;;;;;;;;;;;18.21;100.00;99557.03;5016598;28;19925;-76
2023/06/08 04:36:58;;;;;;;;;;;;;;;18.31;100.00;99560.22;5016587;28;19923;-75
2023/06/08 04:39:24;;;;;;;;;;;;;;;18.34;100.00;99554.47;5034090;28;19917;-78
2023/06/08 04:41:49;;;;;;;;;;;;;;;18.40;100.00;99566.25;5016391;28;19924;-77
2023/06/08 04:44:20;;;;;;;;;;;;;;;18.44;100.00;99574.72;5016055;28;20314;-78
2023/06/08 04:46:47;;;;;;;;;;;;;;;18.47;100.00;99560.94;5024138;28;19939;-79
2023/06/08 04:49:14;;;;;;;;;;;;;;;18.45;100.00;99568.31;5034270;28;20424;-78
2023/06/08 04:51:46;;;;;;;;;;;;;;;18.49;100.00;99562.44;5034112;28;20012;-79
2023/06/08 04:54:13;;;;;;;;;;;;;;;18.60;100.00;99569.13;5033681;28;19917;-77
2023/06/08 04:56:42;;;;;;;;;;;;;;;18.60;100.00;99567.28;5016123;28;20016;-78
2023/06/08 04:59:08;;;;;;;;;;;;;;;18.67;100.00;99572.69;5029574;28;20408;-77
2023/06/08 05:01:34;;;;;;;;;;;;;;;18.75;100.00;99575.19;5032802;28;19917;-76
2023/06/08 05:04:01;;;;;;;;;;;;;;;18.83;100.00;99572.38;5008349;28;20270;-76
2023/06/08 05:06:27;;;;;;;;;;;;;;;18.89;100.00;99576.94;5034069;28;19917;-77
2023/06/08 05:08:52;;;;;;;;;;;;;;;18.91;100.00;99580.22;5033746;28;20019;-76
2023/06/08 05:11:18;;;;;;;;;;;;;;;18.97;100.00;99582.13;5034070;28;19920;-77
2023/06/08 05:13:43;;;;;;;;;;;;;;;19.04;100.00;99582.16;5015792;28;19917;-76
2023/06/08 05:16:12;;;;;;;;;;;;;;;19.01;100.00;99583.41;5033003;28;19913;-78
2023/06/08 05:18:37;;;;;;;;;;;;;;;19.01;100.00;99586.06;5029413;28;20403;-80
2023/06/08 05:21:03;;;;;;;;;;;;;;;19.06;100.00;99588.97;5015360;28;19976;-79
2023/06/08 05:23:28;;;;;;;;;;;;;;;19.06;100.00;99583.63;5015959;28;19920;-82
2023/06/08 05:25:54;;;;;;;;;;;;;;;19.06;100.00;99583.63;5033447;28;19917;-80
2023/06/08 05:28:20;;;;;;;;;;;;;;;19.02;100.00;99593.06;5033620;28;19949;-77
2023/06/08 05:30:45;;;;;;;;;;;;;;;18.93;100.00;99591.56;5034238;28;20023;-78
2023/06/08 05:33:11;;;;;;;;;;;;;;;18.99;100.00;99582.75;5036633;28;19957;-82
2023/06/08 05:35:36;;;;;;;;;;;;;;;19.08;100.00;99586.94;5036783;28;19944;-80
2023/06/08 05:38:02;;;;;;;;;;;;;;;19.20;100.00;99590.69;5017169;28;19959;-80
2023/06/08 05:40:28;;;;;;;;;;;;;;;19.30;100.00;99590.34;5035100;28;20012;-81
2023/06/08 05:42:53;;;;;;;;;;;;;;;19.39;100.00;99588.31;5034434;28;19924;-80
2023/06/08 05:45:18;;;;;;;;;;;;;;;19.46;100.00;99599.91;5033984;28;20274;-79
2023/06/08 05:47:44;;;;;;;;;;;;;;;19.48;100.00;99595.19;5034192;28;19917;-80
2023/06/08 05:50:10;;;;;;;;;;;;;;;19.39;100.00;99599.03;5034102;28;20357;-79
2023/06/08 05:52:35;;;;;;;;;;;;;;;19.36;100.00;99604.78;5034694;28;19917;-81
2023/06/08 05:55:01;;;;;;;;;;;;;;;19.35;100.00;99593.25;5019289;28;19917;-80
2023/06/08 05:57:26;;;;;;;;;;;;;;;19.41;100.00;99591.63;5040742;28;19957;-85
2023/06/08 05:59:52;;;;;;;;;;;;;;;19.40;100.00;99592.66;5043621;28;19944;-85
2023/06/08 06:02:17;;;;;;;;;;;;;;;19.49;100.00;99588.84;5042391;28;19960;-87
2023/06/08 06:04:43;;;;;;;;;;;;;;;19.55;100.00;99590.72;5042321;28;19928;-80
2023/06/08 06:07:10;;;;;;;;;;;;;;;19.66;100.00;99595.50;5047828;28;19998;-85
2023/06/08 06:09:35;;;;;;;;;;;;;;;19.70;100.00;99591.38;5036280;28;19917;-81
2023/06/08 06:12:01;;;;;;;;;;;;;;;19.68;100.00;99596.09;5038337;28;19940;-82
2023/06/08 06:14:27;;;;;;;;;;;;;;;19.75;100.00;99594.28;5038686;28;19917;-82
2023/06/08 06:16:53;;;;;;;;;;;;;;;19.82;100.00;99586.25;5021727;28;19971;-82
2023/06/08 06:19:18;;;;;;;;;;;;;;;19.80;100.00;99591.81;5038592;28;19917;-81
2023/06/08 06:21:44;;;;;;;;;;;;;;;19.85;100.00;99588.56;5038119;28;19970;-81
2023/06/08 06:24:09;;;;;;;;;;;;;;;19.93;100.00;99599.06;5020909;28;19921;-81
2023/06/08 06:26:35;;;;;;;;;;;;;;;20.00;100.00;99597.25;5040424;28;19917;-81
2023/06/08 06:29:00;;;;;;;;;;;;;;;20.10;100.00;99596.84;5040994;28;19932;-82
2023/06/08 06:31:26;;;;;;;;;;;;;;;20.19;100.00;99595.63;5041005;28;20393;-82
2023/06/08 06:33:51;;;;;;;;;;;;;;;20.25;100.00;99590.28;5040086;28;19988;-81
2023/06/08 06:36:17;;;;;;;;;;;;;;;20.24;100.00;99595.84;5041300;28;19917;-82
2023/06/08 06:38:44;;;;;;;;;;;;;;;20.15;100.00;99589.00;5023578;28;19983;-83
2023/06/08 06:41:09;;;;;;;;;;;;;;;20.34;100.00;99590.94;5042512;28;19916;-82
2023/06/08 06:43:35;;;;;;;;;;;;;;;20.49;100.00;99591.56;5041364;28;19917;-82
2023/06/08 06:46:10;;;;;;;;;;;;;;;20.52;100.00;99596.50;5021369;28;19917;-82
2023/06/08 06:48:35;;;;;;;;;;;;;;;20.56;100.00;99592.38;5041011;28;20031;-82
2023/06/08 06:51:00;;;;;;;;;;;;;;;20.72;100.00;99597.34;5040527;28;19921;-83
2023/06/08 06:53:26;;;;;;;;;;;;;;;20.88;100.00;99588.03;5040031;28;19917;-82
2023/06/08 06:55:51;;;;;;;;;;;;;;;20.87;100.00;99593.59;5038996;28;19940;-82
2023/06/08 06:58:18;;;;;;;;;;;;;;;20.96;100.00;99605.78;5039389;28;20080;-81
2023/06/08 07:00:44;;;;;;;;;;;;;;;21.05;100.00;99601.84;5022691;28;20384;-82
2023/06/08 07:03:11;;;;;;;;;;;;;;;21.12;100.00;99602.66;5042334;28;19917;-82
2023/06/08 07:05:36;;;;;;;;;;;;;;;21.24;100.00;99606.38;5040797;28;19913;-82
2023/06/08 07:08:02;;;;;;;;;;;;;;;21.33;100.00;99610.47;5040080;28;19928;-81
2023/06/08 07:10:28;;;;;;;;;;;;;;;21.34;100.00;99612.13;5040058;28;19939;-81
2023/06/08 07:12:53;;;;;;;;;;;;;;;21.41;100.00;99612.94;5040958;28;19917;-82
2023/06/08 07:15:19;;;;;;;;;;;;;;;21.37;100.00;99611.72;5041900;28;19917;-81
2023/06/08 07:17:46;;;;;;;;;;;;;;;21.31;100.00;99612.56;5041174;28;19917;-80
2023/06/08 07:20:12;;;;;;;;;;;;;;;21.30;100.00;99618.13;5040868;28;19927;-82
2023/06/08 07:22:38;;;;;;;;;;;;;;;21.33;100.00;99605.09;5038825;28;19956;-81
2023/06/08 07:25:04;;;;;;;;;;;;;;;21.29;100.00;99614.63;5038705;28;20012;-81
2023/06/08 07:27:30;;;;;;;;;;;;;;;21.29;100.00;99606.56;5039190;28;20285;-81
2023/06/08 07:29:56;;;;;;;;;;;;;;;21.21;100.00;99606.78;5040464;28;19917;-81
2023/06/08 07:32:22;;;;;;;;;;;;;;;21.26;100.00;99604.31;5043289;28;19921;-80
2023/06/08 07:34:47;;;;;;;;;;;;;;;21.36;100.00;99599.34;5041767;28;19923;-82
2023/06/08 07:37:13;;;;;;;;;;;;;;;21.41;100.00;99601.38;5036393;28;19963;-81
2023/06/08 07:39:38;;;;;;;;;;;;;;;21.53;100.00;99608.56;5037774;28;19923;-80
2023/06/08 07:42:05;;;;;;;;;;;;;;;21.53;100.00;99600.50;5037506;28;19963;-81
2023/06/08 07:44:30;;;;;;;;;;;;;;;21.53;100.00;99603.19;5018313;28;20529;-80
2023/06/08 07:46:56;;;;;;;;;;;;;;;21.53;100.00;99595.13;5035005;28;19917;-80
2023/06/08 07:49:21;;;;;;;;;;;;;;;21.55;100.00;99600.31;5034499;28;19928;-81
2023/06/08 07:51:47;;;;;;;;;;;;;;;21.56;100.00;99597.38;5036627;28;19928;-82
2023/06/08 07:54:13;;;;;;;;;;;;;;;21.65;100.00;99598.81;5038673;28;19981;-80
2023/06/08 07:56:39;;;;;;;;;;;;;;;21.82;100.00;99598.31;5030533;28;19917;-82
2023/06/08 07:59:04;;;;;;;;;;;;;;;21.95;100.00;99599.13;5021304;28;19925;-81
2023/06/08 08:01:30;;;;;;;;;;;;;;;21.87;100.00;99591.25;5021024;28;19929;-81
2023/06/08 08:03:56;;;;;;;;;;;;;;;21.87;100.00;99601.19;5038287;28;20331;-82
2023/06/08 08:06:22;;;;;;;;;;;;;;;21.93;100.00;99598.47;5037912;28;19920;-82
2023/06/08 08:08:48;;;;;;;;;;;;;;;21.98;100.00;99598.66;5036590;28;19974;-82
2023/06/08 08:11:13;;;;;;;;;;;;;;;21.78;100.00;99591.72;5037985;28;19925;-81
2023/06/08 08:13:39;;;;;;;;;;;;;;;21.90;100.00;99595.38;5038493;28;19920;-83
2023/06/08 08:16:04;;;;;;;;;;;;;;;21.97;100.00;99597.00;5037757;28;19984;-81
2023/06/08 08:18:30;;;;;;;;;;;;;;;21.87;100.00;99606.56;5038447;28;20427;-81
2023/06/08 08:20:55;;;;;;;;;;;;;;;21.94;100.00;99601.97;5038700;28;19917;-82
2023/06/08 08:23:21;;;;;;;;;;;;;;;21.95;100.00;99604.50;5038479;28;19960;-82
2023/06/08 08:25:46;;;;;;;;;;;;;;;21.99;100.00;99603.00;5037607;28;19923;-82
2023/06/08 08:28:13;;;;;;;;;;;;;;;22.03;100.00;99606.09;5020533;28;20440;-83
2023/06/08 08:30:38;;;;;;;;;;;;;;;22.03;100.00;99603.41;5038261;28;19917;-83
2023/06/08 08:33:03;;;;;;;;;;;;;;;22.04;100.00;99603.19;5037906;28;19928;-82
2023/06/08 08:35:31;;;;;;;;;;;;;;;22.07;100.00;99601.13;5037946;28;20335;-83
2023/06/08 08:37:57;;;;;;;;;;;;;;;22.03;100.00;99589.97;5038945;28;19952;-83
2023/06/08 08:40:23;;;;;;;;;;;;;;;22.15;100.00;99596.28;5037758;28;19924;-83
2023/06/08 08:42:57;;;;;;;;;;;;;;;22.00;100.00;99591.22;5019515;28;19944;-83
2023/06/08 08:45:27;;;;;;;;;;;;;;;22.08;100.00;99598.22;5038060;28;19988;-83
2023/06/08 08:47:53;;;;;;;;;;;;;;;22.18;100.00;99595.88;5037082;28;20269;-82
2023/06/08 08:50:19;;;;;;;;;;;;;;;22.16;100.00;99597.94;5037742;28;19917;-85
2023/06/08 08:52:48;;;;;;;;;;;;;;;22.14;100.00;99600.03;5037310;28;19960;-79
2023/06/08 08:55:13;;;;;;;;;;;;;;;22.12;100.00;99598.59;5036773;28;19971;-85
2023/06/08 08:57:39;;;;;;;;;;;;;;;22.15;100.00;99601.66;5036908;28;19917;-83
2023/06/08 09:00:09;;;;;;;;;;;;;;;22.09;100.00;99599.84;5036564;28;19921;-83
2023/06/08 09:02:36;;;;;;;;;;;;;;;22.04;100.00;99599.66;5037062;28;19924;-83
2023/06/08 09:05:05;;;;;;;;;;;;;;;22.18;100.00;99598.56;5036727;28;19913;-82
2023/06/08 09:07:31;;;;;;;;;;;;;;;22.12;100.00;99596.75;5035925;28;19925;-83
2023/06/08 09:10:18;;;;;;;;;;;;;;;22.09;100.00;99599.84;5034552;28;20377;-82
2023/06/08 09:12:44;;;;;;;;;;;;;;;22.22;100.00;99594.38;5032172;28;20308;-82
2023/06/08 09:15:11;;;;;;;;;;;;;;;22.27;100.00;99586.50;5036788;28;19917;-82
2023/06/08 09:17:37;;;;;;;;;;;;;;;22.34;100.00;99586.44;5015304;28;20285;-82
2023/06/08 09:20:06;;;;;;;;;;;;;;;22.51;100.00;99582.19;5036448;28;19920;-82
2023/06/08 09:22:31;;;;;;;;;;;;;;;22.61;100.00;99587.09;5027994;28;19925;-82
2023/06/08 09:24:57;;;;;;;;;;;;;;;22.74;100.00;99585.13;5036570;28;19921;-84
2023/06/08 09:27:24;;;;;;;;;;;;;;;22.81;100.00;99582.38;5037016;28;19961;-84
2023/06/08 09:29:50;;;;;;;;;;;;;;;22.71;100.00;99584.72;5037001;28;19917;-83
2023/06/08 09:32:20;;;;;;;;;;;;;;;22.80;100.00;99573.47;5036793;28;20284;-83
2023/06/08 09:34:49;;;;;;;;;;;;;;;22.75;100.00;99572.50;5036495;28;19917;-83
2023/06/08 09:37:14;;;;;;;;;;;;;;;22.76;100.00;99563.38;5036496;28;19945;-84
2023/06/08 09:39:41;;;;;;;;;;;;;;;22.73;100.00;99570.03;5036605;28;19917;-83
2023/06/08 09:42:06;;;;;;;;;;;;;;;22.85;100.00;99567.44;5032063;28;19921;-82
2023/06/08 09:44:32;;;;;;;;;;;;;;;22.94;100.00;99566.09;5036173;28;19931;-84
2023/06/08 09:46:58;;;;;;;;;;;;;;;23.00;100.00;99570.59;5035817;28;19917;-83
2023/06/08 09:49:23;;;;;;;;;;;;;;;23.09;100.00;99571.16;5018504;28;19924;-82
2023/06/08 09:51:50;;;;;;;;;;;;;;;23.21;100.00;99567.47;5035932;28;19971;-83
2023/06/08 09:54:16;;;;;;;;;;;;;;;23.33;100.00;99569.44;5018581;28;19924;-83
2023/06/08 09:56:47;;;;;;;;;;;;;;;23.43;100.00;99569.72;5036101;28;19924;-83
2023/06/08 09:59:15;;;;;;;;;;;;;;;23.57;100.00;99565.81;5036165;28;19975;-83
2023/06/08 10:01:48;;;;;;;;;;;;;;;23.47;100.00;99568.25;5036512;28;19925;-84
2023/06/08 10:04:20;;;;;;;;;;;;;;;23.37;100.00;99566.06;5018200;28;19964;-83
2023/06/08 10:06:47;;;;;;;;;;;;;;;23.52;100.00;99558.44;5035386;28;19957;-83
2023/06/08 10:09:14;;;;;;;;;;;;;;;23.69;100.00;99564.00;5038077;28;19921;-82
2023/06/08 10:11:40;;;;;;;;;;;;;;;23.87;100.00;99555.91;5039345;28;19976;-83
2023/06/08 10:14:06;;;;;;;;;;;;;;;24.04;100.00;99561.44;5033447;28;19921;-83
2023/06/08 10:16:32;;;;;;;;;;;;;;;24.21;100.00;99561.69;5038468;28;20287;-84
2023/06/08 10:18:58;;;;;;;;;;;;;;;24.16;100.00;99565.00;5038010;28;19917;-83
2023/06/08 10:21:26;;;;;;;;;;;;;;;24.14;100.00;99555.53;5020019;28;19923;-82
2023/06/08 10:23:52;;;;;;;;;;;;;;;24.25;100.00;99562.84;5036230;28;20373;-84
2023/06/08 10:26:18;;;;;;;;;;;;;;;24.38;100.00;99554.56;5038056;28;19940;-83
2023/06/08 10:29:07;;;;;;;;;;;;;;;24.55;100.00;99558.22;5034561;28;19917;-82
2023/06/08 10:31:34;;;;;;;;;;;;;;;24.43;100.00;99550.09;5035231;28;20003;-83
2023/06/08 10:34:04;;;;;;;;;;;;;;;24.61;100.00;99551.88;5033356;28;19924;-83
2023/06/08 10:36:36;;;;;;;;;;;;;;;24.66;100.00;99546.59;5016625;28;19923;-84
2023/06/08 10:39:06;;;;;;;;;;;;;;;24.57;100.00;99550.69;5036604;28;19923;-83
2023/06/08 10:41:45;;;;;;;;;;;;;;;24.50;100.00;99539.22;5038342;28;20137;-83
2023/06/08 10:44:24;;;;;;;;;;;;;;;24.50;100.00;99539.22;5031075;28;19927;-85
2023/06/08 10:47:05;;;;;;;;;;;;;;;24.40;100.00;99538.94;5020425;28;19952;-84
2023/06/08 10:49:31;;;;;;;;;;;;;;;24.44;100.00;99534.75;5036286;28;19920;-84
2023/06/08 10:51:57;;;;;;;;;;;;;;;24.37;100.00;99528.63;5035789;28;19982;-84
2023/06/08 10:54:33;;;;;;;;;;;;;;;;;;;;;
2023/06/08 10:57:03;;;;;;;;;;;;;;;24.39;100.00;99521.13;5038198;28;19924;-83
2023/06/08 10:59:34;;;;;;;;;;;;;;;24.38;100.00;99525.72;5029034;28;19976;-82
2023/06/08 11:02:04;;;;;;;;;;;;;;;24.35;100.00;99519.94;5037863;28;19917;-83
2023/06/08 11:04:30;;;;;;;;;;;;;;;24.29;100.00;99512.78;5037405;28;19967;-85
2023/06/08 11:07:05;;;;;;;;;;;;;;;24.37;100.00;99512.44;5039450;28;19917;-83
2023/06/08 11:09:36;;;;;;;;;;;;;;;24.27;100.00;99504.13;5038738;28;19936;-82
2023/06/08 11:12:12;;;;;;;;;;;;;;;24.25;100.00;99503.53;5033338;28;19923;-84
2023/06/08 11:14:37;;;;;;;;;;;;;;;24.21;100.00;99502.34;5032285;28;19964;-84
2023/06/08 11:17:23;;;;;;;;;;;;;;;24.38;100.00;99498.75;5031558;28;19917;-83
2023/06/08 11:19:48;;;;;;;;;;;;;;;24.55;100.00;99503.44;5025172;28;19936;-83
2023/06/08 11:22:14;;;;;;;;;;;;;;;24.54;100.00;99496.41;5031722;28;19939;-84
2023/06/08 11:24:44;;;;;;;;;;;;;;;24.56;100.00;99488.91;5013931;28;19964;-84
2023/06/08 11:27:18;;;;;;;;;;;;;;;24.65;100.00;99498.25;5027968;28;19927;-83
2023/06/08 11:29:47;;;;;;;;;;;;;;;24.50;100.00;99487.97;5028398;28;19917;-84
2023/06/08 11:32:14;;;;;;;;;;;;;;;24.58;100.00;99492.97;5031181;28;19924;-83
2023/06/08 11:34:45;;;;;;;;;;;;;;;24.69;100.00;99484.06;5031321;28;19964;-84
2023/06/08 11:37:16;;;;;;;;;;;;;;;24.75;100.00;99488.50;5027976;28;19917;-83
2023/06/08 11:39:45;;;;;;;;;;;;;;;24.79;100.00;99484.31;5027885;28;20007;-83
2023/06/08 11:42:11;;;;;;;;;;;;;;;24.95;100.00;99476.56;5031339;28;19971;-84
2023/06/08 11:44:36;;;;;;;;;;;;;;;25.02;100.00;99477.25;5027126;28;19917;-84
2023/06/08 11:47:02;;;;;;;;;;;;;;;24.94;100.00;99472.22;5013173;28;19932;-84
2023/06/08 11:49:48;;;;;;;;;;;;;;;24.96;100.00;99470.09;5032314;28;19917;-83
2023/06/08 11:52:14;;;;;;;;;;;;;;;25.31;100.00;99454.63;5037086;28;20027;-82
2023/06/08 11:54:39;;;;;;;;;;;;;;;25.50;100.00;99447.97;5031768;28;19917;-84
2023/06/08 11:57:05;;;;;;;;;;;;;;;25.58;100.00;99444.06;5030830;28;19940;-83
2023/06/08 11:59:35;;;;;;;;;;;;;;;25.74;100.00;99445.19;5030685;28;20038;-84
2023/06/08 12:02:00;;;;;;;;;;;;;;;25.83;100.00;99443.69;5030204;28;19925;-84
2023/06/08 12:04:35;;;;;;;;;;;;;;;25.91;100.00;99437.91;5030677;28;20043;-84
2023/06/08 12:07:18;;;;;;;;;;;;;;;26.06;100.00;99435.44;5030431;28;20427;-84
2023/06/08 12:10:07;;;;;;;;;;;;;;;26.15;100.00;99428.56;5029646;28;19933;-84
2023/06/08 12:12:32;;;;;;;;;;;;;;;26.21;100.00;99426.75;5032351;28;20019;-84
2023/06/08 12:14:58;;;;;;;;;;;;;;;26.22;100.00;99423.78;5030687;28;20038;-84
2023/06/08 12:17:26;;;;;;;;;;;;;;;26.25;100.00;99417.94;5031054;28;19913;-83
2023/06/08 12:19:55;;;;;;;;;;;;;;;26.33;100.00;99420.19;5030148;28;19917;-83
2023/06/08 12:22:21;;;;;;;;;;;;;;;26.43;100.00;99412.25;5030672;28;20392;-83
2023/06/08 12:24:53;;;;;;;;;;;;;;;26.39;100.00;99404.88;5029860;28;19917;-84
2023/06/08 12:27:20;;;;;;;;;;;;;;;26.48;100.00;99408.78;5030634;28;20407;-82
2023/06/08 12:29:45;;;;;;;;;;;;;;;26.31;99.08;99411.53;5030659;28;19921;-83
2023/06/08 12:32:13;;;;;;;;;;;;;;;26.62;99.43;99414.66;5027959;28;19948;-83
2023/06/08 12:34:39;;;;;;;;;;;;;;;26.68;97.25;99410.97;5029991;28;19916;-87
2023/06/08 12:37:04;;;;;;;;;;;;;;;26.69;97.17;99409.88;5029514;28;19924;-85
2023/06/08 12:39:38;;;;;;;;;;;;;;;26.58;96.11;99417.03;5029243;28;19967;-85